createdAt,value
2022-09-10T00:01:33.498Z,2.30
2022-09-10T00:04:03.180Z,2.37
2022-09-10T00:06:35.300Z,2.70
2022-09-10T00:09:05.487Z,2.43
2022-09-10T00:11:35.271Z,2.63
2022-09-10T00:14:05.722Z,2.57
2022-09-10T00:16:34.587Z,3.03
2022-09-10T00:19:03.369Z,3.03
2022-09-10T00:21:32.113Z,2.20
2022-09-10T00:24:02.027Z,2.77
2022-09-10T00:26:34.520Z,2.30
2022-09-10T00:29:03.282Z,2.90
2022-09-10T00:31:32.823Z,2.73
2022-09-10T00:34:02.440Z,2.90
2022-09-10T00:36:34.676Z,3.03
2022-09-10T00:39:06.648Z,2.77
2022-09-10T00:41:37.594Z,3.00
2022-09-10T00:44:08.014Z,2.87
2022-09-10T00:46:43.763Z,3.00
2022-09-10T00:49:15.732Z,2.90
2022-09-10T00:51:45.508Z,3.20
2022-09-10T00:54:15.253Z,2.97
2022-09-10T00:56:45.605Z,3.10
2022-09-10T00:59:18.416Z,2.83
2022-09-10T01:01:47.285Z,2.90
2022-09-10T01:04:15.606Z,2.60
2022-09-10T01:06:46.315Z,2.50
2022-09-10T01:09:16.226Z,3.23
2022-09-10T01:12:04.645Z,3.03
2022-09-10T01:15:00.552Z,3.13
2022-09-10T01:17:35.071Z,2.63
2022-09-10T01:20:38.283Z,3.67
2022-09-10T01:23:54.544Z,4.03
2022-09-10T01:26:37.261Z,2.97
2022-09-10T01:29:11.286Z,3.50
2022-09-10T01:31:48.343Z,2.83
2022-09-10T01:34:24.856Z,4.30
2022-09-10T01:36:57.885Z,3.20
2022-09-10T01:39:27.400Z,3.80
2022-09-10T01:41:57.107Z,3.13
2022-09-10T01:44:48.269Z,3.37
2022-09-10T01:47:40.743Z,3.20
2022-09-10T01:50:22.134Z,3.30
2022-09-10T01:53:03.319Z,2.60
2022-09-10T01:55:41.960Z,3.07
2022-09-10T01:58:19.911Z,2.70
2022-09-10T02:01:05.614Z,2.90
2022-09-10T02:03:38.088Z,3.33
2022-09-10T02:06:10.357Z,5.80
2022-09-10T02:08:41.699Z,5.83
2022-09-10T02:11:14.261Z,4.67
2022-09-10T02:13:47.333Z,4.50
2022-09-10T02:16:29.571Z,4.10
2022-09-10T02:19:00.112Z,3.90
2022-09-10T02:21:29.238Z,4.60
2022-09-10T02:24:06.042Z,3.77
2022-09-10T02:26:34.507Z,3.10
2022-09-10T02:29:03.179Z,2.60
2022-09-10T02:31:33.090Z,2.70
2022-09-10T02:34:03.218Z,3.03
2022-09-10T02:36:32.541Z,2.93
2022-09-10T02:39:03.201Z,2.43
2022-09-10T02:41:34.245Z,2.97
2022-09-10T02:44:04.724Z,2.30
2022-09-10T02:46:34.538Z,2.63
2022-09-10T02:49:03.095Z,2.30
2022-09-10T02:51:33.753Z,2.23
2022-09-10T02:54:02.008Z,2.40
2022-09-10T02:56:32.433Z,2.30
2022-09-10T02:59:00.868Z,4.30
2022-09-10T03:01:30.520Z,6.90
2022-09-10T03:04:06.870Z,4.70
2022-09-10T03:06:37.060Z,4.70
2022-09-10T03:09:06.572Z,3.80
2022-09-10T03:11:34.902Z,3.97
2022-09-10T03:14:03.278Z,3.70
2022-09-10T03:16:33.274Z,4.10
2022-09-10T03:19:03.455Z,4.07
2022-09-10T03:21:35.276Z,5.80
2022-09-10T03:24:05.241Z,5.53
2022-09-10T03:26:34.201Z,6.13
2022-09-10T03:29:03.297Z,6.77
2022-09-10T03:31:36.940Z,6.50
2022-09-10T03:34:06.207Z,6.70
2022-09-10T03:36:35.892Z,6.43
2022-09-10T03:39:06.783Z,6.73
2022-09-10T03:41:35.320Z,5.77
2022-09-10T03:44:04.048Z,5.60
2022-09-10T03:46:32.599Z,5.70
2022-09-10T03:49:02.653Z,6.00
2022-09-10T03:51:32.190Z,5.17
2022-09-10T03:54:02.587Z,5.00
2022-09-10T03:56:34.024Z,5.60
2022-09-10T03:59:02.459Z,5.50
2022-09-10T04:01:31.042Z,5.20
2022-09-10T04:03:59.978Z,4.27
2022-09-10T04:06:32.311Z,4.37
2022-09-10T04:09:02.508Z,4.50
2022-09-10T04:11:30.851Z,4.30
2022-09-10T04:14:00.207Z,4.17
2022-09-10T04:16:29.305Z,3.90
2022-09-10T04:18:57.692Z,3.57
2022-09-10T04:21:27.458Z,4.13
2022-09-10T04:23:59.299Z,3.60
2022-09-10T04:26:29.165Z,3.80
2022-09-10T04:28:57.614Z,3.47
2022-09-10T04:31:26.236Z,3.50
2022-09-10T04:34:00.163Z,3.03
2022-09-10T04:36:29.148Z,3.60
2022-09-10T04:38:59.904Z,3.13
2022-09-10T04:41:31.080Z,3.67
2022-09-10T04:44:00.051Z,3.20
2022-09-10T04:46:28.902Z,3.80
2022-09-10T04:49:00.321Z,3.93
2022-09-10T04:51:28.745Z,3.47
2022-09-10T04:53:58.037Z,3.97
2022-09-10T04:56:32.875Z,3.87
2022-09-10T04:59:01.320Z,4.30
2022-09-10T05:01:32.564Z,4.30
2022-09-10T05:04:00.941Z,4.10
2022-09-10T05:06:29.252Z,4.77
2022-09-10T05:08:58.477Z,3.77
2022-09-10T05:11:27.891Z,3.20
2022-09-10T05:13:58.429Z,3.83
2022-09-10T05:16:30.336Z,3.77
2022-09-10T05:18:59.482Z,4.57
2022-09-10T05:21:31.068Z,3.60
2022-09-10T05:23:59.860Z,4.33
2022-09-10T05:26:28.774Z,4.20
2022-09-10T05:29:00.435Z,4.40
2022-09-10T05:31:29.181Z,4.20
2022-09-10T05:33:59.376Z,3.73
2022-09-10T05:36:27.978Z,3.97
2022-09-10T05:38:56.450Z,3.80
2022-09-10T05:41:25.310Z,3.43
2022-09-10T05:43:55.631Z,3.43
2022-09-10T05:46:25.462Z,3.30
2022-09-10T05:48:58.320Z,2.80
2022-09-10T05:51:30.651Z,3.00
2022-09-10T05:54:03.635Z,3.10
2022-09-10T05:56:34.735Z,3.47
2022-09-10T05:59:04.202Z,2.70
2022-09-10T06:01:35.476Z,2.20
2022-09-10T06:04:06.910Z,2.33
2022-09-10T06:06:36.471Z,2.60
2022-09-10T06:09:09.650Z,1.90
2022-09-10T06:11:49.350Z,2.63
2022-09-10T06:14:20.405Z,2.00
2022-09-10T06:16:52.005Z,2.13
2022-09-10T06:19:20.912Z,2.10
2022-09-10T06:21:52.421Z,2.00
2022-09-10T06:24:22.562Z,1.67
2022-09-10T06:26:53.153Z,2.30
2022-09-10T06:29:22.846Z,1.80
2022-09-10T06:31:52.485Z,2.03
2022-09-10T06:34:21.168Z,2.20
2022-09-10T06:36:50.772Z,2.13
2022-09-10T06:39:19.788Z,2.20
2022-09-10T06:41:54.892Z,2.67
2022-09-10T06:44:41.515Z,2.60
2022-09-10T06:50:10.345Z,2.53
2022-09-10T06:52:40.796Z,2.80
2022-09-10T06:55:11.915Z,2.87
2022-09-10T06:57:43.802Z,2.73
2022-09-10T07:00:14.804Z,2.63
2022-09-10T07:02:50.612Z,3.37
2022-09-10T07:05:19.492Z,2.90
2022-09-10T07:07:48.335Z,2.73
2022-09-10T07:10:17.814Z,2.37
2022-09-10T07:12:46.533Z,3.10
2022-09-10T07:15:14.973Z,2.53
2022-09-10T07:17:43.368Z,2.70
2022-09-10T07:20:14.935Z,3.17
2022-09-10T07:22:46.880Z,2.80
2022-09-10T07:25:16.636Z,3.27
2022-09-10T07:28:01.368Z,2.57
2022-09-10T07:30:31.921Z,2.60
2022-09-10T07:33:00.882Z,2.70
2022-09-10T07:35:32.623Z,2.73
2022-09-10T07:38:01.399Z,3.00
2022-09-10T07:40:29.963Z,2.50
2022-09-10T07:43:00.209Z,2.60
2022-09-10T07:45:30.309Z,2.90
2022-09-10T07:48:00.006Z,3.10
2022-09-10T07:50:28.859Z,2.80
2022-09-10T07:52:58.840Z,2.40
2022-09-10T07:55:27.300Z,1.93
2022-09-10T07:57:59.547Z,2.97
2022-09-10T08:00:29.625Z,2.43
2022-09-10T08:03:03.174Z,2.20
2022-09-10T08:05:32.191Z,2.20
2022-09-10T08:08:04.041Z,3.20
2022-09-10T08:10:32.507Z,2.43
2022-09-10T08:13:01.095Z,2.77
2022-09-10T08:15:29.540Z,3.80
2022-09-10T08:18:00.931Z,2.50
2022-09-10T08:20:29.656Z,2.30
2022-09-10T08:22:59.731Z,2.30
2022-09-10T08:25:29.508Z,2.73
2022-09-10T08:27:58.763Z,2.47
2022-09-10T08:30:27.743Z,2.40
2022-09-10T08:32:57.122Z,2.80
2022-09-10T08:35:25.580Z,2.20
2022-09-10T08:37:54.939Z,2.70
2022-09-10T08:40:23.734Z,2.97
2022-09-10T08:42:54.160Z,2.73
2022-09-10T08:45:28.576Z,3.10
2022-09-10T08:48:03.359Z,2.70
2022-09-10T08:50:39.243Z,2.77
2022-09-10T08:53:25.981Z,2.70
2022-09-10T08:56:02.059Z,2.10
2022-09-10T08:58:41.080Z,2.30
2022-09-10T09:01:16.414Z,3.03
2022-09-10T09:03:47.288Z,2.23
2022-09-10T09:06:31.306Z,3.00
2022-09-10T09:09:02.281Z,2.23
2022-09-10T09:11:43.316Z,2.27
2022-09-10T09:14:41.840Z,2.13
2022-09-10T09:17:51.524Z,2.40
2022-09-10T09:20:32.609Z,2.60
2022-09-10T09:23:13.489Z,2.23
2022-09-10T09:25:50.005Z,2.03
2022-09-10T09:28:33.409Z,2.37
2022-09-10T09:31:09.666Z,2.47
2022-09-10T09:33:39.999Z,3.03
2022-09-10T09:36:17.755Z,2.17
2022-09-10T09:38:50.875Z,2.60
2022-09-10T09:41:27.986Z,2.30
2022-09-10T09:44:01.538Z,1.80
2022-09-10T09:46:31.385Z,3.47
2022-09-10T09:49:03.939Z,2.10
2022-09-10T09:51:36.663Z,2.00
2022-09-10T09:57:00.000Z,1.93
2022-09-10T09:59:30.379Z,2.30
2022-09-10T10:02:06.918Z,2.20
2022-09-10T10:04:41.508Z,2.17
2022-09-10T10:07:12.663Z,2.20
2022-09-10T10:09:44.438Z,2.53
2022-09-10T10:12:20.579Z,2.40
2022-09-10T10:14:49.212Z,2.73
2022-09-10T10:17:43.512Z,2.20
2022-09-10T10:20:13.979Z,2.30
2022-09-10T10:22:43.898Z,2.20
2022-09-10T10:25:38.362Z,2.00
2022-09-10T10:28:16.643Z,2.47
2022-09-10T10:30:45.386Z,2.60
2022-09-10T10:33:21.180Z,2.53
2022-09-10T10:35:56.420Z,1.83
2022-09-10T10:38:32.751Z,2.13
2022-09-10T10:41:38.483Z,1.80
2022-09-10T10:44:33.707Z,2.20
2022-09-10T10:47:23.059Z,1.87
2022-09-10T10:50:04.606Z,2.10
2022-09-10T10:52:46.686Z,2.10
2022-09-10T10:55:23.397Z,2.00
2022-09-10T10:58:08.736Z,1.93
2022-09-10T11:00:44.008Z,1.93
2022-09-10T11:03:19.179Z,2.37
2022-09-10T11:05:52.967Z,2.43
2022-09-10T11:08:33.293Z,2.00
2022-09-10T11:11:06.198Z,3.60
2022-09-10T11:13:40.563Z,2.17
2022-09-10T11:16:16.731Z,3.10
2022-09-10T11:18:48.815Z,2.47
2022-09-10T11:21:27.084Z,2.10
2022-09-10T11:24:01.666Z,1.83
2022-09-10T11:26:36.455Z,2.57
2022-09-10T11:29:17.432Z,1.60
2022-09-10T11:31:51.099Z,2.00
2022-09-10T11:34:27.276Z,2.10
2022-09-10T11:37:02.259Z,2.07
2022-09-10T11:39:35.506Z,2.23
2022-09-10T11:42:13.567Z,1.97
2022-09-10T11:44:55.533Z,2.27
2022-09-10T11:47:27.638Z,1.57
2022-09-10T11:50:01.405Z,2.03
2022-09-10T11:52:34.762Z,1.90
2022-09-10T11:55:05.068Z,1.60
2022-09-10T11:57:41.083Z,1.70
2022-09-10T12:00:16.171Z,2.33
2022-09-10T12:03:29.472Z,2.10
2022-09-10T12:06:04.268Z,1.97
2022-09-10T12:08:48.604Z,2.07
2022-09-10T12:11:24.948Z,1.37
2022-09-10T12:13:53.588Z,2.37
2022-09-10T12:16:32.172Z,2.40
2022-09-10T12:19:02.555Z,2.00
2022-09-10T12:21:34.771Z,1.80
2022-09-10T12:24:19.129Z,2.10
2022-09-10T12:26:47.637Z,1.90
2022-09-10T12:29:31.787Z,2.00
2022-09-10T12:32:37.257Z,1.83
2022-09-10T12:35:45.042Z,1.60
2022-09-10T12:38:47.641Z,1.90
2022-09-10T12:41:49.487Z,1.70
2022-09-10T12:44:48.181Z,1.87
2022-09-10T12:47:50.452Z,2.00
2022-09-10T12:50:34.367Z,1.73
2022-09-10T12:53:25.115Z,2.10
2022-09-10T12:56:02.324Z,2.17
2022-09-10T12:58:50.054Z,2.10
2022-09-10T13:01:33.540Z,2.00
2022-09-10T13:04:02.996Z,1.77
2022-09-10T13:06:40.917Z,2.33
2022-09-10T13:09:20.717Z,1.80
2022-09-10T13:11:52.377Z,1.87
2022-09-10T13:14:25.987Z,1.90
2022-09-10T13:16:56.400Z,1.80
2022-09-10T13:19:52.845Z,1.70
2022-09-10T13:23:05.988Z,2.00
2022-09-10T13:25:41.533Z,1.83
2022-09-10T13:28:47.248Z,1.83
2022-09-10T13:31:22.196Z,1.80
2022-09-10T13:34:23.463Z,1.90
2022-09-10T13:37:15.959Z,1.90
2022-09-10T13:40:03.898Z,2.03
2022-09-10T13:42:52.035Z,1.87
2022-09-10T13:45:25.337Z,1.67
2022-09-10T13:48:01.058Z,2.00
2022-09-10T13:50:35.950Z,1.87
2022-09-10T13:53:10.735Z,2.10
2022-09-10T13:55:39.676Z,2.03
2022-09-10T13:58:14.958Z,2.20
2022-09-10T14:00:53.351Z,1.70
2022-09-10T14:03:24.874Z,1.57
2022-09-10T14:05:55.882Z,2.37
2022-09-10T14:08:30.730Z,2.53
2022-09-10T14:11:01.727Z,2.00
2022-09-10T14:13:36.958Z,1.90
2022-09-10T14:16:09.301Z,2.70
2022-09-10T14:18:44.083Z,1.97
2022-09-10T14:21:15.101Z,1.90
2022-09-10T14:23:49.968Z,2.40
2022-09-10T14:26:24.242Z,2.23
2022-09-10T14:28:55.224Z,1.83
2022-09-10T14:31:30.630Z,1.83
2022-09-10T14:33:59.747Z,2.10
2022-09-10T14:36:35.371Z,2.10
2022-09-10T14:39:15.146Z,1.90
2022-09-10T14:41:43.976Z,1.80
2022-09-10T14:44:27.586Z,1.90
2022-09-10T14:46:58.484Z,2.20
2022-09-10T14:49:32.663Z,1.80
2022-09-10T14:52:01.921Z,1.67
2022-09-10T14:54:33.614Z,1.70
2022-09-10T14:57:04.299Z,1.93
2022-09-10T14:59:35.050Z,2.00
2022-09-10T15:02:07.843Z,1.87
2022-09-10T15:04:38.934Z,2.03
2022-09-10T15:07:07.384Z,1.97
2022-09-10T15:09:36.980Z,2.00
2022-09-10T15:12:10.179Z,1.83
2022-09-10T15:14:38.867Z,1.90
2022-09-10T15:17:08.128Z,1.60
2022-09-10T15:19:36.444Z,2.00
2022-09-10T15:22:04.835Z,2.03
2022-09-10T15:24:47.218Z,2.00
2022-09-10T15:27:22.784Z,2.00
2022-09-10T15:29:51.627Z,1.83
2022-09-10T15:32:19.879Z,1.83
2022-09-10T15:34:48.345Z,2.23
2022-09-10T15:37:16.921Z,1.97
2022-09-10T15:39:45.456Z,2.47
2022-09-10T15:42:13.837Z,1.70
2022-09-10T15:44:44.144Z,2.27
2022-09-10T15:47:12.391Z,2.20
2022-09-10T15:49:40.894Z,1.70
2022-09-10T15:52:10.233Z,2.17
2022-09-10T15:54:38.731Z,1.80
2022-09-10T15:57:07.185Z,2.13
2022-09-10T15:59:35.444Z,2.00
2022-09-10T16:02:06.557Z,2.00
2022-09-10T16:04:37.209Z,1.80
2022-09-10T16:07:08.643Z,2.57
2022-09-10T16:09:37.003Z,2.10
2022-09-10T16:12:05.628Z,2.33
2022-09-10T16:14:34.127Z,2.23
2022-09-10T16:17:10.299Z,2.30
2022-09-10T16:19:38.771Z,1.90
2022-09-10T16:22:08.162Z,1.57
2022-09-10T16:24:36.672Z,1.70
2022-09-10T16:27:05.053Z,2.47
2022-09-10T16:29:33.530Z,2.00
2022-09-10T16:32:01.772Z,1.73
2022-09-10T16:34:31.636Z,2.30
2022-09-10T16:36:59.872Z,1.83
2022-09-10T16:39:28.168Z,1.80
2022-09-10T16:41:57.063Z,1.60
2022-09-10T16:44:25.317Z,2.10
2022-09-10T16:46:53.714Z,1.77
2022-09-10T16:49:22.295Z,2.33
2022-09-10T16:51:51.969Z,1.83
2022-09-10T16:54:21.039Z,2.00
2022-09-10T16:56:50.349Z,1.93
2022-09-10T16:59:21.396Z,2.03
2022-09-10T17:01:51.738Z,2.07
2022-09-10T17:04:27.607Z,1.80
2022-09-10T17:06:59.017Z,2.13
2022-09-10T17:09:27.481Z,2.10
2022-09-10T17:11:55.769Z,2.67
2022-09-10T17:14:24.484Z,1.73
2022-09-10T17:16:53.199Z,1.80
2022-09-10T17:19:24.108Z,2.10
2022-09-10T17:21:55.627Z,2.03
2022-09-10T17:24:27.258Z,2.20
2022-09-10T17:26:56.227Z,2.00
2022-09-10T17:29:25.983Z,2.20
2022-09-10T17:31:55.475Z,2.33
2022-09-10T17:34:25.255Z,2.30
2022-09-10T17:36:54.158Z,2.17
2022-09-10T17:39:22.628Z,1.70
2022-09-10T17:41:55.251Z,1.90
2022-09-10T17:44:24.365Z,2.30
2022-09-10T17:46:52.644Z,2.30
2022-09-10T17:49:20.935Z,1.90
2022-09-10T17:51:49.156Z,2.00
2022-09-10T17:54:18.289Z,1.87
2022-09-10T17:56:46.621Z,2.27
2022-09-10T17:59:16.469Z,2.00
2022-09-10T18:01:44.813Z,2.77
2022-09-10T18:04:14.418Z,2.20
2022-09-10T18:06:46.798Z,3.27
2022-09-10T18:09:17.628Z,3.20
2022-09-10T18:11:46.003Z,3.03
2022-09-10T18:14:19.493Z,2.70
2022-09-10T18:16:47.829Z,2.37
2022-09-10T18:19:18.014Z,2.10
2022-09-10T18:21:47.659Z,1.87
2022-09-10T18:24:17.622Z,2.17
2022-09-10T18:26:48.203Z,2.00
2022-09-10T18:29:21.151Z,2.03
2022-09-10T18:31:51.996Z,2.17
2022-09-10T18:34:23.835Z,2.30
2022-09-10T18:36:54.793Z,1.87
2022-09-10T18:39:24.965Z,1.87
2022-09-10T18:41:53.610Z,2.30
2022-09-10T18:44:25.317Z,2.33
2022-09-10T18:46:54.679Z,2.00
2022-09-10T18:49:24.806Z,2.10
2022-09-10T18:51:54.072Z,2.20
2022-09-10T18:54:23.669Z,2.00
2022-09-10T18:56:52.831Z,2.13
2022-09-10T18:59:24.859Z,2.13
2022-09-10T19:01:55.781Z,2.17
2022-09-10T19:04:25.773Z,2.20
2022-09-10T19:06:54.892Z,2.23
2022-09-10T19:09:25.050Z,2.50
2022-09-10T19:11:55.164Z,2.60
2022-09-10T19:14:26.880Z,2.70
2022-09-10T19:16:57.370Z,2.40
2022-09-10T19:19:27.331Z,2.50
2022-09-10T19:21:57.146Z,2.53
2022-09-10T19:24:43.955Z,2.23
2022-09-10T19:27:12.700Z,2.47
2022-09-10T19:29:43.181Z,1.83
2022-09-10T19:32:11.598Z,2.80
2022-09-10T19:34:40.057Z,2.80
2022-09-10T19:37:08.347Z,2.80
2022-09-10T19:39:36.735Z,2.53
2022-09-10T19:42:06.787Z,2.30
2022-09-10T19:44:35.185Z,2.37
2022-09-10T19:47:05.038Z,2.50
2022-09-10T19:49:34.231Z,2.37
2022-09-10T19:52:04.325Z,2.40
2022-09-10T19:54:32.641Z,1.90
2022-09-10T19:57:00.952Z,2.53
2022-09-10T19:59:29.187Z,2.30
2022-09-10T20:01:57.629Z,2.70
2022-09-10T20:04:27.767Z,2.10
2022-09-10T20:06:56.040Z,2.90
2022-09-10T20:09:24.381Z,2.50
2022-09-10T20:11:52.794Z,3.00
2022-09-10T20:14:21.236Z,2.63
2022-09-10T20:16:49.706Z,2.60
2022-09-10T20:19:20.297Z,2.33
2022-09-10T20:21:51.568Z,2.20
2022-09-10T20:24:19.905Z,2.43
2022-09-10T20:26:49.059Z,2.30
2022-09-10T20:29:19.482Z,2.40
2022-09-10T20:31:48.508Z,2.43
2022-09-10T20:34:19.800Z,3.00
2022-09-10T20:36:51.234Z,2.50
2022-09-10T20:39:21.045Z,2.40
2022-09-10T20:41:49.577Z,2.00
2022-09-10T20:44:18.631Z,2.20
2022-09-10T20:46:47.044Z,2.60
2022-09-10T20:49:16.340Z,2.30
2022-09-10T20:51:45.052Z,2.47
2022-09-10T20:54:17.204Z,2.20
2022-09-10T20:56:46.145Z,2.20
2022-09-10T20:59:15.911Z,2.50
2022-09-10T21:01:46.285Z,2.40
2022-09-10T21:04:15.348Z,2.33
2022-09-10T21:06:44.155Z,2.50
2022-09-10T21:09:14.531Z,2.00
2022-09-10T21:14:12.572Z,2.30
2022-09-10T21:16:43.473Z,2.40
2022-09-10T21:19:13.794Z,3.10
2022-09-10T21:21:43.354Z,2.83
2022-09-10T21:24:14.612Z,2.40
2022-09-10T21:26:44.167Z,2.57
2022-09-10T21:29:14.414Z,2.20
2022-09-10T21:31:43.347Z,2.27
2022-09-10T21:34:11.892Z,2.40
2022-09-10T21:36:41.333Z,2.27
2022-09-10T21:39:15.206Z,2.53
2022-09-10T21:41:45.497Z,2.27
2022-09-10T21:44:15.512Z,2.67
2022-09-10T21:46:44.615Z,2.50
2022-09-10T21:49:13.129Z,2.50
2022-09-10T21:51:42.223Z,2.80
2022-09-10T21:54:18.596Z,2.50
2022-09-10T21:56:47.015Z,2.37
2022-09-10T21:59:16.183Z,2.10
2022-09-10T22:01:46.590Z,2.20
2022-09-10T22:04:20.011Z,2.50
2022-09-10T22:06:49.978Z,1.90
2022-09-10T22:09:19.968Z,2.30
2022-09-10T22:11:50.342Z,2.50
2022-09-10T22:14:21.003Z,2.90
2022-09-10T22:16:49.865Z,2.10
2022-09-10T22:19:20.405Z,2.40
2022-09-10T22:21:48.693Z,2.40
2022-09-10T22:24:18.488Z,2.50
2022-09-10T22:26:48.405Z,2.40
2022-09-10T22:29:18.603Z,2.10
2022-09-10T22:31:47.472Z,2.30
2022-09-10T22:34:17.213Z,2.57
2022-09-10T22:36:47.099Z,2.60
2022-09-10T22:39:16.923Z,2.50
2022-09-10T22:41:47.619Z,2.57
2022-09-10T22:44:17.719Z,2.40
2022-09-10T22:46:46.165Z,2.40
2022-09-10T22:49:15.511Z,2.30
2022-09-10T22:51:44.107Z,3.10
2022-09-10T22:54:12.496Z,2.33
2022-09-10T22:56:42.034Z,2.40
2022-09-10T22:59:14.593Z,2.43
2022-09-10T23:01:47.254Z,2.40
2022-09-10T23:04:16.383Z,2.50
2022-09-10T23:06:44.756Z,2.23
2022-09-10T23:09:14.977Z,2.70
2022-09-10T23:11:45.140Z,2.83
2022-09-10T23:14:17.751Z,2.50
2022-09-10T23:16:48.847Z,2.67
2022-09-10T23:19:19.759Z,2.10
2022-09-10T23:21:49.961Z,2.17
2022-09-10T23:24:20.352Z,2.30
2022-09-10T23:26:49.205Z,2.50
2022-09-10T23:29:20.524Z,2.17
2022-09-10T23:31:48.958Z,3.10
2022-09-10T23:34:19.017Z,2.40
2022-09-10T23:36:49.232Z,2.87
2022-09-10T23:39:20.072Z,2.53
2022-09-10T23:41:48.880Z,1.77
2022-09-10T23:44:18.925Z,2.10
2022-09-10T23:46:48.072Z,2.23
2022-09-10T23:49:16.650Z,2.20
2022-09-10T23:51:44.948Z,2.60
2022-09-10T23:54:13.572Z,2.10
2022-09-10T23:56:42.347Z,2.47
2022-09-10T23:59:11.486Z,2.70
